sensor_id;sensor_type;location;lat;lon;timestamp;pressure;altitude;pressure_sealevel;temperature
15680;BMP180;15488;48.114;11.532;2023-07-31T00:02:22;95535.00;;;25.00
15680;BMP180;15488;48.114;11.532;2023-07-31T00:04:50;95533.00;;;24.90
15680;BMP180;15488;48.114;11.532;2023-07-31T00:07:17;95535.00;;;25.00
15680;BMP180;15488;48.114;11.532;2023-07-31T00:09:46;95536.00;;;24.80
15680;BMP180;15488;48.114;11.532;2023-07-31T00:12:14;95532.00;;;24.80
15680;BMP180;15488;48.114;11.532;2023-07-31T00:14:41;95532.00;;;24.80
15680;BMP180;15488;48.114;11.532;2023-07-31T00:17:08;95536.00;;;24.70
15680;BMP180;15488;48.114;11.532;2023-07-31T00:19:36;95534.00;;;24.70
15680;BMP180;15488;48.114;11.532;2023-07-31T00:22:04;95527.00;;;24.60
15680;BMP180;15488;48.114;11.532;2023-07-31T00:24:31;95529.00;;;24.70
15680;BMP180;15488;48.114;11.532;2023-07-31T00:27:00;95529.00;;;24.50
15680;BMP180;15488;48.114;11.532;2023-07-31T00:29:28;95529.00;;;24.50
15680;BMP180;15488;48.114;11.532;2023-07-31T00:31:55;95526.00;;;24.50
15680;BMP180;15488;48.114;11.532;2023-07-31T00:34:23;95522.00;;;24.50
15680;BMP180;15488;48.114;11.532;2023-07-31T00:36:50;95525.00;;;24.40
15680;BMP180;15488;48.114;11.532;2023-07-31T00:39:17;95521.00;;;24.40
15680;BMP180;15488;48.114;11.532;2023-07-31T00:41:45;95517.00;;;24.40
15680;BMP180;15488;48.114;11.532;2023-07-31T00:44:14;95517.00;;;24.40
15680;BMP180;15488;48.114;11.532;2023-07-31T00:46:42;95510.00;;;24.40
15680;BMP180;15488;48.114;11.532;2023-07-31T00:49:09;95510.00;;;24.40
15680;BMP180;15488;48.114;11.532;2023-07-31T00:51:37;95505.00;;;24.40
15680;BMP180;15488;48.114;11.532;2023-07-31T00:54:06;95511.00;;;24.40
15680;BMP180;15488;48.114;11.532;2023-07-31T00:56:34;95505.00;;;24.40
15680;BMP180;15488;48.114;11.532;2023-07-31T00:59:01;95501.00;;;24.40
15680;BMP180;15488;48.114;11.532;2023-07-31T01:01:30;95502.00;;;24.40
15680;BMP180;15488;48.114;11.532;2023-07-31T01:03:58;95503.00;;;24.40
15680;BMP180;15488;48.114;11.532;2023-07-31T01:06:30;95510.00;;;24.40
15680;BMP180;15488;48.114;11.532;2023-07-31T01:09:03;95505.00;;;24.40
15680;BMP180;15488;48.114;11.532;2023-07-31T01:11:33;95504.00;;;24.40
15680;BMP180;15488;48.114;11.532;2023-07-31T01:14:01;95502.00;;;24.40
15680;BMP180;15488;48.114;11.532;2023-07-31T01:16:30;95496.00;;;24.40
15680;BMP180;15488;48.114;11.532;2023-07-31T01:18:58;95497.00;;;24.40
15680;BMP180;15488;48.114;11.532;2023-07-31T01:21:41;95496.00;;;24.40
15680;BMP180;15488;48.114;11.532;2023-07-31T01:24:22;95498.00;;;24.40
15680;BMP180;15488;48.114;11.532;2023-07-31T01:26:55;95491.00;;;24.40
15680;BMP180;15488;48.114;11.532;2023-07-31T01:29:29;95488.00;;;24.40
15680;BMP180;15488;48.114;11.532;2023-07-31T01:32:02;95483.00;;;24.50
15680;BMP180;15488;48.114;11.532;2023-07-31T01:34:30;95481.00;;;24.50
15680;BMP180;15488;48.114;11.532;2023-07-31T01:36:58;95477.00;;;24.50
15680;BMP180;15488;48.114;11.532;2023-07-31T01:39:26;95478.00;;;24.50
15680;BMP180;15488;48.114;11.532;2023-07-31T01:41:54;95476.00;;;24.50
15680;BMP180;15488;48.114;11.532;2023-07-31T01:44:22;95472.00;;;24.50
15680;BMP180;15488;48.114;11.532;2023-07-31T01:46:49;95473.00;;;24.50
15680;BMP180;15488;48.114;11.532;2023-07-31T01:49:17;95473.00;;;24.50
15680;BMP180;15488;48.114;11.532;2023-07-31T01:51:44;95472.00;;;24.50
15680;BMP180;15488;48.114;11.532;2023-07-31T01:54:12;95472.00;;;24.50
15680;BMP180;15488;48.114;11.532;2023-07-31T01:56:39;95467.00;;;24.50
15680;BMP180;15488;48.114;11.532;2023-07-31T01:59:08;95469.00;;;24.40
15680;BMP180;15488;48.114;11.532;2023-07-31T02:01:35;95474.00;;;24.50
15680;BMP180;15488;48.114;11.532;2023-07-31T02:04:03;95470.00;;;24.50
15680;BMP180;15488;48.114;11.532;2023-07-31T02:06:31;95468.00;;;24.40
15680;BMP180;15488;48.114;11.532;2023-07-31T02:08:58;95469.00;;;24.50
15680;BMP180;15488;48.114;11.532;2023-07-31T02:11:26;95472.00;;;24.50
15680;BMP180;15488;48.114;11.532;2023-07-31T02:13:53;95461.00;;;24.50
15680;BMP180;15488;48.114;11.532;2023-07-31T02:16:22;95453.00;;;24.50
15680;BMP180;15488;48.114;11.532;2023-07-31T02:18:49;95453.00;;;24.50
15680;BMP180;15488;48.114;11.532;2023-07-31T02:21:17;95447.00;;;24.50
15680;BMP180;15488;48.114;11.532;2023-07-31T02:23:44;95443.00;;;24.50
15680;BMP180;15488;48.114;11.532;2023-07-31T02:26:11;95443.00;;;24.50
15680;BMP180;15488;48.114;11.532;2023-07-31T02:28:39;95440.00;;;24.50
15680;BMP180;15488;48.114;11.532;2023-07-31T02:31:08;95440.00;;;24.50
15680;BMP180;15488;48.114;11.532;2023-07-31T02:33:37;95439.00;;;24.50
15680;BMP180;15488;48.114;11.532;2023-07-31T02:36:05;95441.00;;;24.50
15680;BMP180;15488;48.114;11.532;2023-07-31T02:38:32;95435.00;;;24.50
15680;BMP180;15488;48.114;11.532;2023-07-31T02:40:59;95426.00;;;24.50
15680;BMP180;15488;48.114;11.532;2023-07-31T02:43:26;95427.00;;;24.50
15680;BMP180;15488;48.114;11.532;2023-07-31T02:45:53;95432.00;;;24.50
15680;BMP180;15488;48.114;11.532;2023-07-31T02:48:21;95425.00;;;24.50
15680;BMP180;15488;48.114;11.532;2023-07-31T02:50:50;95428.00;;;24.50
15680;BMP180;15488;48.114;11.532;2023-07-31T02:53:17;95424.00;;;24.50
15680;BMP180;15488;48.114;11.532;2023-07-31T02:55:45;95423.00;;;24.50
15680;BMP180;15488;48.114;11.532;2023-07-31T02:58:12;95416.00;;;24.50
15680;BMP180;15488;48.114;11.532;2023-07-31T03:00:42;95415.00;;;24.50
15680;BMP180;15488;48.114;11.532;2023-07-31T03:03:10;95414.00;;;24.50
15680;BMP180;15488;48.114;11.532;2023-07-31T03:05:38;95421.00;;;24.50
15680;BMP180;15488;48.114;11.532;2023-07-31T03:08:07;95412.00;;;24.50
15680;BMP180;15488;48.114;11.532;2023-07-31T03:10:34;95414.00;;;24.50
15680;BMP180;15488;48.114;11.532;2023-07-31T03:13:01;95414.00;;;24.40
15680;BMP180;15488;48.114;11.532;2023-07-31T03:15:29;95410.00;;;24.40
15680;BMP180;15488;48.114;11.532;2023-07-31T03:17:56;95419.00;;;24.40
15680;BMP180;15488;48.114;11.532;2023-07-31T03:20:24;95408.00;;;24.40
15680;BMP180;15488;48.114;11.532;2023-07-31T03:22:51;95415.00;;;24.40
15680;BMP180;15488;48.114;11.532;2023-07-31T03:25:20;95412.00;;;24.40
15680;BMP180;15488;48.114;11.532;2023-07-31T03:27:47;95413.00;;;24.40
15680;BMP180;15488;48.114;11.532;2023-07-31T03:30:15;95415.00;;;24.30
15680;BMP180;15488;48.114;11.532;2023-07-31T03:32:42;95414.00;;;24.30
15680;BMP180;15488;48.114;11.532;2023-07-31T03:35:10;95421.00;;;24.30
15680;BMP180;15488;48.114;11.532;2023-07-31T03:37:37;95420.00;;;24.30
15680;BMP180;15488;48.114;11.532;2023-07-31T03:40:05;95424.00;;;24.20
15680;BMP180;15488;48.114;11.532;2023-07-31T03:42:34;95422.00;;;24.10
15680;BMP180;15488;48.114;11.532;2023-07-31T03:45:02;95426.00;;;24.10
15680;BMP180;15488;48.114;11.532;2023-07-31T03:47:30;95424.00;;;24.00
15680;BMP180;15488;48.114;11.532;2023-07-31T03:49:57;95428.00;;;24.00
15680;BMP180;15488;48.114;11.532;2023-07-31T03:52:24;95426.00;;;23.90
15680;BMP180;15488;48.114;11.532;2023-07-31T03:54:52;95426.00;;;23.90
15680;BMP180;15488;48.114;11.532;2023-07-31T03:57:19;95431.00;;;23.80
15680;BMP180;15488;48.114;11.532;2023-07-31T03:59:48;95430.00;;;23.80
15680;BMP180;15488;48.114;11.532;2023-07-31T04:02:16;95428.00;;;23.80
15680;BMP180;15488;48.114;11.532;2023-07-31T04:04:44;95428.00;;;23.70
15680;BMP180;15488;48.114;11.532;2023-07-31T04:07:12;95421.00;;;23.70
15680;BMP180;15488;48.114;11.532;2023-07-31T04:09:39;95420.00;;;23.70
15680;BMP180;15488;48.114;11.532;2023-07-31T04:12:07;95423.00;;;23.70
15680;BMP180;15488;48.114;11.532;2023-07-31T04:14:35;95412.00;;;23.70
15680;BMP180;15488;48.114;11.532;2023-07-31T04:17:04;95412.00;;;23.70
15680;BMP180;15488;48.114;11.532;2023-07-31T04:19:31;95413.00;;;23.70
15680;BMP180;15488;48.114;11.532;2023-07-31T04:21:58;95416.00;;;23.70
15680;BMP180;15488;48.114;11.532;2023-07-31T04:24:26;95416.00;;;23.60
15680;BMP180;15488;48.114;11.532;2023-07-31T04:26:54;95419.00;;;23.60
15680;BMP180;15488;48.114;11.532;2023-07-31T04:29:21;95420.00;;;23.70
15680;BMP180;15488;48.114;11.532;2023-07-31T04:31:50;95412.00;;;23.70
15680;BMP180;15488;48.114;11.532;2023-07-31T04:34:19;95414.00;;;23.70
15680;BMP180;15488;48.114;11.532;2023-07-31T04:36:46;95414.00;;;23.70
15680;BMP180;15488;48.114;11.532;2023-07-31T04:39:13;95412.00;;;23.70
15680;BMP180;15488;48.114;11.532;2023-07-31T04:41:41;95407.00;;;23.70
15680;BMP180;15488;48.114;11.532;2023-07-31T04:44:08;95410.00;;;23.70
15680;BMP180;15488;48.114;11.532;2023-07-31T04:46:37;95408.00;;;23.70
15680;BMP180;15488;48.114;11.532;2023-07-31T04:49:04;95416.00;;;23.70
15680;BMP180;15488;48.114;11.532;2023-07-31T04:51:33;95406.00;;;23.70
15680;BMP180;15488;48.114;11.532;2023-07-31T04:54:01;95399.00;;;23.80
15680;BMP180;15488;48.114;11.532;2023-07-31T04:56:28;95398.00;;;23.80
15680;BMP180;15488;48.114;11.532;2023-07-31T04:58:55;95402.00;;;23.80
15680;BMP180;15488;48.114;11.532;2023-07-31T05:01:23;95405.00;;;23.90
15680;BMP180;15488;48.114;11.532;2023-07-31T05:03:51;95399.00;;;23.90
15680;BMP180;15488;48.114;11.532;2023-07-31T05:06:18;95406.00;;;23.90
15680;BMP180;15488;48.114;11.532;2023-07-31T05:08:48;95409.00;;;23.90
15680;BMP180;15488;48.114;11.532;2023-07-31T05:11:15;95397.00;;;24.00
15680;BMP180;15488;48.114;11.532;2023-07-31T05:13:43;95407.00;;;24.00
15680;BMP180;15488;48.114;11.532;2023-07-31T05:16:10;95405.00;;;24.00
15680;BMP180;15488;48.114;11.532;2023-07-31T05:18:38;95402.00;;;24.00
15680;BMP180;15488;48.114;11.532;2023-07-31T05:21:05;95413.00;;;24.10
15680;BMP180;15488;48.114;11.532;2023-07-31T05:23:33;95417.00;;;24.00
15680;BMP180;15488;48.114;11.532;2023-07-31T05:26:04;95405.00;;;24.00
15680;BMP180;15488;48.114;11.532;2023-07-31T05:28:33;95409.00;;;24.00
15680;BMP180;15488;48.114;11.532;2023-07-31T05:31:01;95395.00;;;24.00
15680;BMP180;15488;48.114;11.532;2023-07-31T05:33:28;95394.00;;;23.70
15680;BMP180;15488;48.114;11.532;2023-07-31T05:35:56;95397.00;;;24.10
15680;BMP180;15488;48.114;11.532;2023-07-31T05:38:23;95404.00;;;24.10
15680;BMP180;15488;48.114;11.532;2023-07-31T05:40:51;95400.00;;;24.10
15680;BMP180;15488;48.114;11.532;2023-07-31T05:43:19;95396.00;;;24.10
15680;BMP180;15488;48.114;11.532;2023-07-31T05:45:48;95398.00;;;24.20
15680;BMP180;15488;48.114;11.532;2023-07-31T05:48:15;95399.00;;;24.30
15680;BMP180;15488;48.114;11.532;2023-07-31T05:50:43;95402.00;;;24.30
15680;BMP180;15488;48.114;11.532;2023-07-31T05:53:11;95397.00;;;24.30
15680;BMP180;15488;48.114;11.532;2023-07-31T05:55:39;95405.00;;;24.20
15680;BMP180;15488;48.114;11.532;2023-07-31T05:58:06;95395.00;;;24.20
15680;BMP180;15488;48.114;11.532;2023-07-31T06:00:35;95392.00;;;24.30
15680;BMP180;15488;48.114;11.532;2023-07-31T06:03:02;95399.00;;;24.40
15680;BMP180;15488;48.114;11.532;2023-07-31T06:05:30;95394.00;;;24.40
15680;BMP180;15488;48.114;11.532;2023-07-31T06:07:58;95390.00;;;24.30
15680;BMP180;15488;48.114;11.532;2023-07-31T06:10:26;95398.00;;;24.50
15680;BMP180;15488;48.114;11.532;2023-07-31T06:12:54;95397.00;;;24.50
15680;BMP180;15488;48.114;11.532;2023-07-31T06:15:23;95396.00;;;24.40
15680;BMP180;15488;48.114;11.532;2023-07-31T06:17:52;95397.00;;;24.50
15680;BMP180;15488;48.114;11.532;2023-07-31T06:20:19;95400.00;;;24.60
15680;BMP180;15488;48.114;11.532;2023-07-31T06:22:47;95412.00;;;24.60
15680;BMP180;15488;48.114;11.532;2023-07-31T06:25:14;95411.00;;;24.60
15680;BMP180;15488;48.114;11.532;2023-07-31T06:27:41;95413.00;;;24.60
15680;BMP180;15488;48.114;11.532;2023-07-31T06:30:10;95408.00;;;24.50
15680;BMP180;15488;48.114;11.532;2023-07-31T06:32:37;95402.00;;;24.60
15680;BMP180;15488;48.114;11.532;2023-07-31T06:35:08;95405.00;;;24.60
15680;BMP180;15488;48.114;11.532;2023-07-31T06:37:35;95405.00;;;24.80
15680;BMP180;15488;48.114;11.532;2023-07-31T06:40:04;95407.00;;;24.70
15680;BMP180;15488;48.114;11.532;2023-07-31T06:42:33;95407.00;;;24.80
15680;BMP180;15488;48.114;11.532;2023-07-31T06:45:01;95402.00;;;24.70
15680;BMP180;15488;48.114;11.532;2023-07-31T06:47:28;95409.00;;;24.80
15680;BMP180;15488;48.114;11.532;2023-07-31T06:49:56;95405.00;;;24.80
15680;BMP180;15488;48.114;11.532;2023-07-31T06:52:25;95408.00;;;24.80
15680;BMP180;15488;48.114;11.532;2023-07-31T06:55:02;95402.00;;;24.90
15680;BMP180;15488;48.114;11.532;2023-07-31T06:57:30;95396.00;;;24.80
15680;BMP180;15488;48.114;11.532;2023-07-31T06:59:58;95392.00;;;24.90
15680;BMP180;15488;48.114;11.532;2023-07-31T07:02:26;95384.00;;;25.10
15680;BMP180;15488;48.114;11.532;2023-07-31T07:04:53;95388.00;;;25.10
15680;BMP180;15488;48.114;11.532;2023-07-31T07:07:20;95386.00;;;25.10
15680;BMP180;15488;48.114;11.532;2023-07-31T07:09:49;95390.00;;;25.20
15680;BMP180;15488;48.114;11.532;2023-07-31T07:12:17;95395.00;;;25.20
15680;BMP180;15488;48.114;11.532;2023-07-31T07:14:44;95397.00;;;25.20
15680;BMP180;15488;48.114;11.532;2023-07-31T07:17:13;95394.00;;;25.40
15680;BMP180;15488;48.114;11.532;2023-07-31T07:19:41;95391.00;;;25.30
15680;BMP180;15488;48.114;11.532;2023-07-31T07:22:09;95382.00;;;25.30
15680;BMP180;15488;48.114;11.532;2023-07-31T07:24:37;95392.00;;;25.20
15680;BMP180;15488;48.114;11.532;2023-07-31T07:27:06;95393.00;;;25.20
15680;BMP180;15488;48.114;11.532;2023-07-31T07:29:34;95389.00;;;25.10
15680;BMP180;15488;48.114;11.532;2023-07-31T07:32:02;95396.00;;;25.00
15680;BMP180;15488;48.114;11.532;2023-07-31T07:34:29;95389.00;;;25.10
15680;BMP180;15488;48.114;11.532;2023-07-31T07:36:57;95392.00;;;25.20
15680;BMP180;15488;48.114;11.532;2023-07-31T07:39:24;95382.00;;;25.20
15680;BMP180;15488;48.114;11.532;2023-07-31T07:41:52;95377.00;;;25.20
15680;BMP180;15488;48.114;11.532;2023-07-31T07:44:21;95377.00;;;25.30
15680;BMP180;15488;48.114;11.532;2023-07-31T07:46:49;95375.00;;;25.30
15680;BMP180;15488;48.114;11.532;2023-07-31T07:49:16;95378.00;;;25.30
15680;BMP180;15488;48.114;11.532;2023-07-31T07:51:44;95372.00;;;25.50
15680;BMP180;15488;48.114;11.532;2023-07-31T07:54:11;95365.00;;;25.40
15680;BMP180;15488;48.114;11.532;2023-07-31T07:56:39;95367.00;;;25.40
15680;BMP180;15488;48.114;11.532;2023-07-31T07:59:06;95356.00;;;25.30
15680;BMP180;15488;48.114;11.532;2023-07-31T08:01:35;95357.00;;;25.20
15680;BMP180;15488;48.114;11.532;2023-07-31T08:04:02;95340.00;;;25.30
15680;BMP180;15488;48.114;11.532;2023-07-31T08:06:30;95342.00;;;25.40
15680;BMP180;15488;48.114;11.532;2023-07-31T08:08:57;95302.00;;;25.40
15680;BMP180;15488;48.114;11.532;2023-07-31T08:11:25;95352.00;;;25.50
15680;BMP180;15488;48.114;11.532;2023-07-31T08:13:52;95353.00;;;25.50
15680;BMP180;15488;48.114;11.532;2023-07-31T08:16:20;95354.00;;;25.60
15680;BMP180;15488;48.114;11.532;2023-07-31T08:18:48;95358.00;;;25.70
15680;BMP180;15488;48.114;11.532;2023-07-31T08:21:16;95361.00;;;25.80
15680;BMP180;15488;48.114;11.532;2023-07-31T08:23:44;95359.00;;;25.70
15680;BMP180;15488;48.114;11.532;2023-07-31T08:26:15;95362.00;;;25.60
15680;BMP180;15488;48.114;11.532;2023-07-31T08:28:43;95355.00;;;25.80
15680;BMP180;15488;48.114;11.532;2023-07-31T08:31:11;95363.00;;;25.80
15680;BMP180;15488;48.114;11.532;2023-07-31T08:33:39;95355.00;;;25.90
15680;BMP180;15488;48.114;11.532;2023-07-31T08:36:08;95357.00;;;25.80
15680;BMP180;15488;48.114;11.532;2023-07-31T08:38:36;95350.00;;;25.70
15680;BMP180;15488;48.114;11.532;2023-07-31T08:41:04;95356.00;;;25.80
15680;BMP180;15488;48.114;11.532;2023-07-31T08:43:31;95355.00;;;25.80
15680;BMP180;15488;48.114;11.532;2023-07-31T08:45:59;95346.00;;;25.90
15680;BMP180;15488;48.114;11.532;2023-07-31T08:48:29;95350.00;;;25.90
15680;BMP180;15488;48.114;11.532;2023-07-31T08:50:56;95343.00;;;25.90
15680;BMP180;15488;48.114;11.532;2023-07-31T08:53:25;95354.00;;;26.00
15680;BMP180;15488;48.114;11.532;2023-07-31T08:55:53;95340.00;;;26.00
15680;BMP180;15488;48.114;11.532;2023-07-31T08:58:22;95348.00;;;26.10
15680;BMP180;15488;48.114;11.532;2023-07-31T09:00:51;95348.00;;;26.10
15680;BMP180;15488;48.114;11.532;2023-07-31T09:03:21;95356.00;;;26.20
15680;BMP180;15488;48.114;11.532;2023-07-31T09:05:50;95351.00;;;26.30
15680;BMP180;15488;48.114;11.532;2023-07-31T09:08:19;95353.00;;;26.40
15680;BMP180;15488;48.114;11.532;2023-07-31T09:10:49;95358.00;;;26.40
15680;BMP180;15488;48.114;11.532;2023-07-31T09:13:17;95352.00;;;26.40
15680;BMP180;15488;48.114;11.532;2023-07-31T09:15:45;95345.00;;;26.40
15680;BMP180;15488;48.114;11.532;2023-07-31T09:18:13;95351.00;;;26.60
15680;BMP180;15488;48.114;11.532;2023-07-31T09:20:44;95340.00;;;26.40
15680;BMP180;15488;48.114;11.532;2023-07-31T09:23:13;95340.00;;;26.50
15680;BMP180;15488;48.114;11.532;2023-07-31T09:25:44;95340.00;;;26.40
15680;BMP180;15488;48.114;11.532;2023-07-31T09:28:13;95336.00;;;26.50
15680;BMP180;15488;48.114;11.532;2023-07-31T09:30:46;95335.00;;;26.30
15680;BMP180;15488;48.114;11.532;2023-07-31T09:33:14;95340.00;;;26.50
15680;BMP180;15488;48.114;11.532;2023-07-31T09:35:41;95328.00;;;26.60
15680;BMP180;15488;48.114;11.532;2023-07-31T09:38:11;95331.00;;;26.50
15680;BMP180;15488;48.114;11.532;2023-07-31T09:40:40;95329.00;;;26.60
15680;BMP180;15488;48.114;11.532;2023-07-31T09:43:09;95327.00;;;26.70
15680;BMP180;15488;48.114;11.532;2023-07-31T09:45:40;95325.00;;;26.60
15680;BMP180;15488;48.114;11.532;2023-07-31T09:48:08;95323.00;;;26.70
15680;BMP180;15488;48.114;11.532;2023-07-31T09:50:38;95316.00;;;26.80
15680;BMP180;15488;48.114;11.532;2023-07-31T09:53:06;95316.00;;;26.90
15680;BMP180;15488;48.114;11.532;2023-07-31T09:55:33;95304.00;;;27.00
15680;BMP180;15488;48.114;11.532;2023-07-31T09:58:04;95312.00;;;27.10
15680;BMP180;15488;48.114;11.532;2023-07-31T10:00:33;95311.00;;;27.00
15680;BMP180;15488;48.114;11.532;2023-07-31T10:03:04;95298.00;;;27.10
15680;BMP180;15488;48.114;11.532;2023-07-31T10:05:35;95293.00;;;27.10
15680;BMP180;15488;48.114;11.532;2023-07-31T10:08:04;95299.00;;;27.20
15680;BMP180;15488;48.114;11.532;2023-07-31T10:10:32;95290.00;;;27.20
15680;BMP180;15488;48.114;11.532;2023-07-31T10:13:00;95286.00;;;27.30
15680;BMP180;15488;48.114;11.532;2023-07-31T10:15:29;95276.00;;;27.30
15680;BMP180;15488;48.114;11.532;2023-07-31T10:17:57;95265.00;;;27.40
15680;BMP180;15488;48.114;11.532;2023-07-31T10:20:27;95262.00;;;27.40
15680;BMP180;15488;48.114;11.532;2023-07-31T10:22:55;95254.00;;;27.50
15680;BMP180;15488;48.114;11.532;2023-07-31T10:25:24;95264.00;;;27.40
15680;BMP180;15488;48.114;11.532;2023-07-31T10:27:53;95258.00;;;27.40
15680;BMP180;15488;48.114;11.532;2023-07-31T10:30:25;95252.00;;;27.50
15680;BMP180;15488;48.114;11.532;2023-07-31T10:32:53;95268.00;;;27.60
15680;BMP180;15488;48.114;11.532;2023-07-31T10:35:21;95258.00;;;27.70
15680;BMP180;15488;48.114;11.532;2023-07-31T10:37:50;95251.00;;;27.70
15680;BMP180;15488;48.114;11.532;2023-07-31T10:40:19;95235.00;;;27.90
15680;BMP180;15488;48.114;11.532;2023-07-31T10:42:51;95253.00;;;28.00
15680;BMP180;15488;48.114;11.532;2023-07-31T10:45:27;95256.00;;;27.80
15680;BMP180;15488;48.114;11.532;2023-07-31T10:48:01;95266.00;;;28.20
15680;BMP180;15488;48.114;11.532;2023-07-31T10:50:30;95254.00;;;27.90
15680;BMP180;15488;48.114;11.532;2023-07-31T10:53:00;95251.00;;;28.00
15680;BMP180;15488;48.114;11.532;2023-07-31T10:55:29;95252.00;;;27.80
15680;BMP180;15488;48.114;11.532;2023-07-31T10:58:04;95255.00;;;27.90
15680;BMP180;15488;48.114;11.532;2023-07-31T11:00:33;95247.00;;;28.00
15680;BMP180;15488;48.114;11.532;2023-07-31T11:03:03;95241.00;;;28.00
15680;BMP180;15488;48.114;11.532;2023-07-31T11:05:48;95243.00;;;28.10
15680;BMP180;15488;48.114;11.532;2023-07-31T11:08:18;95235.00;;;28.10
15680;BMP180;15488;48.114;11.532;2023-07-31T11:10:48;95234.00;;;28.20
15680;BMP180;15488;48.114;11.532;2023-07-31T11:13:16;95236.00;;;28.30
15680;BMP180;15488;48.114;11.532;2023-07-31T11:15:44;95221.00;;;28.40
15680;BMP180;15488;48.114;11.532;2023-07-31T11:18:14;95220.00;;;28.40
15680;BMP180;15488;48.114;11.532;2023-07-31T11:20:43;95224.00;;;28.60
15680;BMP180;15488;48.114;11.532;2023-07-31T11:23:11;95224.00;;;28.50
15680;BMP180;15488;48.114;11.532;2023-07-31T11:25:40;95218.00;;;28.60
15680;BMP180;15488;48.114;11.532;2023-07-31T11:28:13;95221.00;;;28.70
15680;BMP180;15488;48.114;11.532;2023-07-31T11:30:42;95209.00;;;28.70
15680;BMP180;15488;48.114;11.532;2023-07-31T11:33:12;95201.00;;;28.70
15680;BMP180;15488;48.114;11.532;2023-07-31T11:35:43;95207.00;;;28.80
15680;BMP180;15488;48.114;11.532;2023-07-31T11:38:11;95206.00;;;28.90
15680;BMP180;15488;48.114;11.532;2023-07-31T11:40:43;95202.00;;;29.00
15680;BMP180;15488;48.114;11.532;2023-07-31T11:43:11;95194.00;;;29.10
15680;BMP180;15488;48.114;11.532;2023-07-31T11:45:46;95186.00;;;29.20
15680;BMP180;15488;48.114;11.532;2023-07-31T11:48:19;95182.00;;;29.30
15680;BMP180;15488;48.114;11.532;2023-07-31T11:50:49;95181.00;;;29.30
15680;BMP180;15488;48.114;11.532;2023-07-31T11:53:19;95172.00;;;29.40
15680;BMP180;15488;48.114;11.532;2023-07-31T11:55:49;95163.00;;;29.50
15680;BMP180;15488;48.114;11.532;2023-07-31T11:58:18;95161.00;;;29.50
15680;BMP180;15488;48.114;11.532;2023-07-31T12:00:47;95157.00;;;29.50
15680;BMP180;15488;48.114;11.532;2023-07-31T12:03:14;95145.00;;;29.60
15680;BMP180;15488;48.114;11.532;2023-07-31T12:05:42;95151.00;;;29.70
15680;BMP180;15488;48.114;11.532;2023-07-31T12:08:10;95157.00;;;29.70
15680;BMP180;15488;48.114;11.532;2023-07-31T12:10:39;95152.00;;;29.70
15680;BMP180;15488;48.114;11.532;2023-07-31T12:13:10;95139.00;;;29.80
15680;BMP180;15488;48.114;11.532;2023-07-31T12:15:40;95133.00;;;29.80
15680;BMP180;15488;48.114;11.532;2023-07-31T12:18:10;95133.00;;;30.00
15680;BMP180;15488;48.114;11.532;2023-07-31T12:20:41;95126.00;;;30.10
15680;BMP180;15488;48.114;11.532;2023-07-31T12:23:14;95131.00;;;30.20
15680;BMP180;15488;48.114;11.532;2023-07-31T12:25:42;95122.00;;;30.20
15680;BMP180;15488;48.114;11.532;2023-07-31T12:28:11;95114.00;;;30.20
15680;BMP180;15488;48.114;11.532;2023-07-31T12:30:40;95119.00;;;30.30
15680;BMP180;15488;48.114;11.532;2023-07-31T12:33:12;95112.00;;;30.50
15680;BMP180;15488;48.114;11.532;2023-07-31T12:35:44;95105.00;;;30.70
15680;BMP180;15488;48.114;11.532;2023-07-31T12:38:12;95104.00;;;30.90
15680;BMP180;15488;48.114;11.532;2023-07-31T12:40:41;95105.00;;;30.90
15680;BMP180;15488;48.114;11.532;2023-07-31T12:43:10;95098.00;;;31.00
15680;BMP180;15488;48.114;11.532;2023-07-31T12:45:37;95097.00;;;31.20
15680;BMP180;15488;48.114;11.532;2023-07-31T12:48:05;95106.00;;;31.30
15680;BMP180;15488;48.114;11.532;2023-07-31T12:50:32;95090.00;;;31.40
15680;BMP180;15488;48.114;11.532;2023-07-31T12:53:02;95095.00;;;31.40
15680;BMP180;15488;48.114;11.532;2023-07-31T12:55:30;95094.00;;;31.60
15680;BMP180;15488;48.114;11.532;2023-07-31T12:57:58;95093.00;;;31.70
15680;BMP180;15488;48.114;11.532;2023-07-31T13:00:28;95094.00;;;31.80
15680;BMP180;15488;48.114;11.532;2023-07-31T13:02:55;95090.00;;;32.10
15680;BMP180;15488;48.114;11.532;2023-07-31T13:05:22;95085.00;;;32.10
15680;BMP180;15488;48.114;11.532;2023-07-31T13:07:50;95085.00;;;32.10
15680;BMP180;15488;48.114;11.532;2023-07-31T13:10:17;95077.00;;;32.20
15680;BMP180;15488;48.114;11.532;2023-07-31T13:12:45;95091.00;;;32.40
15680;BMP180;15488;48.114;11.532;2023-07-31T13:15:13;95079.00;;;32.60
15680;BMP180;15488;48.114;11.532;2023-07-31T13:17:42;95080.00;;;32.70
15680;BMP180;15488;48.114;11.532;2023-07-31T13:20:10;95076.00;;;32.70
15680;BMP180;15488;48.114;11.532;2023-07-31T13:22:38;95080.00;;;32.70
15680;BMP180;15488;48.114;11.532;2023-07-31T13:25:06;95077.00;;;32.70
15680;BMP180;15488;48.114;11.532;2023-07-31T13:27:35;95071.00;;;32.70
15680;BMP180;15488;48.114;11.532;2023-07-31T13:30:03;95069.00;;;32.70
15680;BMP180;15488;48.114;11.532;2023-07-31T13:32:30;95065.00;;;32.60
15680;BMP180;15488;48.114;11.532;2023-07-31T13:34:59;95060.00;;;32.70
15680;BMP180;15488;48.114;11.532;2023-07-31T13:37:27;95057.00;;;33.20
15680;BMP180;15488;48.114;11.532;2023-07-31T13:39:54;95048.00;;;34.50
15680;BMP180;15488;48.114;11.532;2023-07-31T13:42:21;95043.00;;;36.20
15680;BMP180;15488;48.114;11.532;2023-07-31T13:44:49;95039.00;;;37.90
15680;BMP180;15488;48.114;11.532;2023-07-31T13:47:16;95034.00;;;38.50
15680;BMP180;15488;48.114;11.532;2023-07-31T13:49:44;95036.00;;;39.50
15680;BMP180;15488;48.114;11.532;2023-07-31T13:52:12;95031.00;;;40.40
15680;BMP180;15488;48.114;11.532;2023-07-31T13:54:40;95034.00;;;41.80
15680;BMP180;15488;48.114;11.532;2023-07-31T13:57:09;95025.00;;;42.60
15680;BMP180;15488;48.114;11.532;2023-07-31T13:59:36;95033.00;;;42.90
15680;BMP180;15488;48.114;11.532;2023-07-31T14:02:04;95026.00;;;43.00
15680;BMP180;15488;48.114;11.532;2023-07-31T14:04:31;95025.00;;;43.30